Time;durP1;ratioP1;P1;durP2;ratioP2;P2;SDS_P1;SDS_P2;PMS_P1;PMS_P2;Temp;Humidity;BMP_temperature;BMP_pressure;BME280_temperature;BME280_humidity;BME280_pressure;Samples;Min_cycle;Max_cycle;Signal;HPM_P1;HPM_P2
2022/01/18 00:01:24;;;;;;;17.03;9.60;;;;;;;-0.86;100.00;96976.28;1512988;92;21080;-69
2022/01/18 00:03:53;;;;;;;16.90;9.33;;;;;;;-0.85;100.00;96981.92;1602682;89;21060;-70
2022/01/18 00:06:20;;;;;;;17.03;9.47;;;;;;;-0.83;100.00;96977.27;1602391;89;21057;-69
2022/01/18 00:08:49;;;;;;;17.23;9.47;;;;;;;-0.81;100.00;96983.22;1608993;89;21535;-71
2022/01/18 00:11:18;;;;;;;14.80;8.43;;;;;;;-0.79;100.00;96986.52;1608824;88;21082;-71
2022/01/18 00:13:48;;;;;;;15.97;8.37;;;;;;;-0.76;100.00;96988.02;1609235;89;21081;-68
2022/01/18 00:16:28;;;;;;;14.97;8.17;;;;;;;-0.74;100.00;96989.14;1608932;89;21066;-69
2022/01/18 00:18:53;;;;;;;14.00;8.17;;;;;;;-0.71;100.00;96984.83;1642501;87;21130;-70
2022/01/18 00:23:54;;;;;;;17.70;8.83;;;;;;;-0.69;100.00;96980.16;1613852;89;21058;-69
2022/01/18 00:26:20;;;;;;;16.23;8.77;;;;;;;-0.67;100.00;96975.53;1613874;89;21063;-70
2022/01/18 00:28:55;;;;;;;14.93;8.20;;;;;;;-0.66;100.00;96973.19;1591913;89;21067;-70
2022/01/18 00:31:38;;;;;;;14.27;7.40;;;;;;;-0.65;100.00;96967.71;1588548;89;21115;-69
2022/01/18 00:36:40;;;;;;;14.03;7.12;;;;;;;-0.64;100.00;96965.88;1591768;89;21548;-69
2022/01/18 00:39:07;;;;;;;15.47;7.20;;;;;;;-0.62;100.00;96967.84;1619920;87;21086;-70
2022/01/18 00:41:34;;;;;;;14.23;6.80;;;;;;;-0.60;100.00;96969.34;1651107;87;21117;-70
2022/01/18 00:44:03;;;;;;;13.00;6.53;;;;;;;-0.58;100.00;96971.31;1650997;87;21079;-69
2022/01/18 00:46:32;;;;;;;13.77;7.47;;;;;;;-0.56;100.00;96967.16;1650814;87;21046;-69
2022/01/18 00:49:01;;;;;;;14.47;7.77;;;;;;;-0.54;100.00;96965.66;1627853;87;21019;-69
2022/01/18 00:51:30;;;;;;;14.17;7.83;;;;;;;-0.56;100.00;96967.67;1629134;87;21507;-70
2022/01/18 00:53:59;;;;;;;16.77;8.83;;;;;;;-0.54;100.00;96961.68;1651181;87;21042;-70
2022/01/18 00:56:29;;;;;;;19.40;10.73;;;;;;;-0.52;100.00;96959.16;1627842;87;21015;-70
2022/01/18 00:58:55;;;;;;;17.53;9.87;;;;;;;-0.51;100.00;96957.32;1651005;87;21045;-69
2022/01/18 01:01:25;;;;;;;18.57;10.73;;;;;;;-0.53;100.00;96962.83;1627809;87;21079;-69
2022/01/18 01:03:54;;;;;;;18.00;10.43;;;;;;;-0.52;100.00;96963.14;1649864;87;21015;-70
2022/01/18 01:06:20;;;;;;;21.30;11.70;;;;;;;-0.52;100.00;96967.13;1627722;85;21564;-69
2022/01/18 01:08:49;;;;;;;24.20;13.60;;;;;;;-0.53;100.00;96972.12;1632630;85;20986;-70
2022/01/18 01:11:17;;;;;;;19.53;10.97;;;;;;;-0.54;100.00;96965.16;1678295;85;21169;-69
2022/01/18 01:13:54;;;;;;;20.80;11.13;;;;;;;-0.56;100.00;96965.83;1678563;85;21034;-69
2022/01/18 01:35:45;;;;;;;19.17;9.13;;;;;;;-0.79;100.00;96966.63;1743469;82;21501;-66
2022/01/18 01:44:00;;;;;;;14.13;7.40;;;;;;;-0.83;100.00;96972.47;1775012;81;21041;-69
2022/01/18 01:46:07;;;;;;;9.50;5.50;;;;;;;-0.88;100.00;96980.94;1753129;81;21517;-68
2022/01/18 01:48:34;;;;;;;9.60;4.70;;;;;;;-0.89;100.00;96984.58;1742725;82;21072;-69
2022/01/18 01:51:03;;;;;;;10.43;4.90;;;;;;;-0.89;100.00;96991.72;1742893;82;21055;-69
2022/01/18 01:53:32;;;;;;;12.37;5.30;;;;;;;-0.90;100.00;96990.05;1742632;82;21517;-69
2022/01/18 01:55:59;;;;;;;9.77;4.83;;;;;;;-0.93;100.00;96985.94;1723943;82;21043;-70
2022/01/18 01:58:29;;;;;;;8.60;5.00;;;;;;;-0.98;100.00;96999.70;1742525;82;21043;-70
2022/01/18 02:00:59;;;;;;;9.83;5.27;;;;;;;-1.00;100.00;96992.94;1774300;81;21008;-69
2022/01/18 02:03:25;;;;;;;12.23;4.70;;;;;;;-1.00;100.00;97004.36;1681388;83;21097;-69
2022/01/18 02:05:52;;;;;;;8.50;4.50;;;;;;;-1.01;100.00;97005.37;1672917;85;21029;-70
2022/01/18 02:08:20;;;;;;;12.43;5.27;;;;;;;-1.00;100.00;97008.84;1663742;86;21128;-69
2022/01/18 02:10:47;;;;;;;13.77;5.53;;;;;;;-1.01;100.00;97010.68;1631820;87;21083;-69
2022/01/18 02:13:16;;;;;;;13.50;6.20;;;;;;;-1.02;100.00;97009.02;1637148;86;21069;-70
2022/01/18 02:16:10;;;;;;;16.07;5.87;;;;;;;-1.04;100.00;97012.85;1624601;87;21014;-69
2022/01/18 02:23:37;;;;;;;22.17;8.57;;;;;;;-1.11;100.00;97011.89;1567931;90;21137;-69
2022/01/18 02:26:04;;;;;;;15.17;6.87;;;;;;;-1.14;100.00;97020.99;1588340;90;21137;-69
2022/01/18 02:28:35;;;;;;;14.73;6.33;;;;;;;-1.18;100.00;97013.06;1588378;90;21089;-69
2022/01/18 02:31:02;;;;;;;14.47;6.60;;;;;;;-1.21;100.00;97015.54;1588538;90;21057;-69
2022/01/18 02:33:29;;;;;;;18.03;7.93;;;;;;;-1.24;100.00;97025.66;1609650;88;21622;-69
2022/01/18 02:35:56;;;;;;;23.17;10.47;;;;;;;-1.27;100.00;97027.34;1588463;90;21089;-69
2022/01/18 02:38:23;;;;;;;23.20;11.00;;;;;;;-1.28;100.00;97029.66;1588344;90;21558;-69
2022/01/18 02:40:50;;;;;;;27.10;12.83;;;;;;;-1.29;100.00;97027.52;1588382;90;21085;-69
2022/01/18 02:46:03;;;;;;;38.83;21.17;;;;;;;-1.32;100.00;97031.82;1568529;90;21054;-69
2022/01/18 02:48:30;;;;;;;44.93;25.87;;;;;;;-1.31;100.00;97039.27;1568015;90;21082;-69
2022/01/18 02:50:57;;;;;;;51.43;27.53;;;;;;;-1.32;100.00;97042.42;1588633;90;21026;-70
2022/01/18 02:53:24;;;;;;;48.07;27.40;;;;;;;-1.32;100.00;97042.42;1567914;90;21141;-69
2022/01/18 02:55:53;;;;;;;43.10;22.77;;;;;;;-1.34;100.00;97039.94;1567875;90;21141;-70
2022/01/18 02:58:33;;;;;;;44.47;22.43;;;;;;;-1.34;100.00;97048.40;1588174;90;21181;-71
2022/01/18 03:03:36;;;;;;;25.77;11.70;;;;;;;-1.32;100.00;97051.70;1677893;85;21037;-68
2022/01/18 03:06:04;;;;;;;23.60;9.70;;;;;;;-1.31;100.00;97051.20;1682487;84;21532;-69
2022/01/18 03:08:31;;;;;;;23.90;9.33;;;;;;;-1.30;100.00;97042.27;1660670;85;21049;-70
2022/01/18 03:10:58;;;;;;;20.40;8.03;;;;;;;-1.30;100.00;97047.56;1684081;84;21070;-69
2022/01/18 03:13:26;;;;;;;15.90;5.97;;;;;;;-1.30;100.00;97049.70;1688172;85;21093;-69
2022/01/18 03:15:54;;;;;;;12.77;5.40;;;;;;;-1.28;100.00;97048.22;1688615;85;21002;-70
2022/01/18 03:18:21;;;;;;;12.50;4.93;;;;;;;-1.29;100.00;97049.20;1683913;83;21003;-70
2022/01/18 03:20:49;;;;;;;13.30;5.60;;;;;;;-1.30;100.00;97043.08;1688151;84;21704;-69
2022/01/18 03:23:19;;;;;;;13.60;5.97;;;;;;;-1.30;100.00;97055.52;1688392;85;21077;-68
2022/01/18 03:25:57;;;;;;;15.73;6.47;;;;;;;-1.31;100.00;97065.30;1660872;85;21041;-69
2022/01/18 03:28:24;;;;;;;17.63;7.10;;;;;;;-1.34;100.00;97069.09;1688471;84;21551;-69
2022/01/18 03:30:58;;;;;;;16.43;6.77;;;;;;;-1.34;100.00;97074.40;1684226;84;21054;-69
2022/01/18 03:33:28;;;;;;;15.03;5.75;;;;;;;-1.37;100.00;97075.23;1688404;85;21018;-70
2022/01/18 03:35:55;;;;;;;13.97;5.60;;;;;;;-1.39;100.00;97083.36;1688356;84;21045;-69
2022/01/18 03:38:29;;;;;;;16.47;5.83;;;;;;;-1.39;100.00;97091.30;1661160;85;21081;-69
2022/01/18 03:40:51;;;;;;;11.90;5.03;;;;;;;-1.40;100.00;97091.47;1657708;85;21002;-69
2022/01/18 03:43:18;;;;;;;11.73;4.70;;;;;;;-1.42;100.00;97095.61;1684143;84;21097;-70
2022/01/18 03:45:46;;;;;;;10.93;4.50;;;;;;;-1.42;100.00;97100.09;1688169;84;21121;-70
2022/01/18 03:48:25;;;;;;;8.77;4.23;;;;;;;-1.45;100.00;97103.91;1684055;84;21511;-70
2022/01/18 03:50:47;;;;;;;14.70;4.83;;;;;;;-1.48;100.00;97108.22;1618647;89;21037;-69
2022/01/18 03:53:15;;;;;;;11.67;4.67;;;;;;;-1.51;100.00;97103.24;1613531;89;21149;-70
2022/01/18 03:55:45;;;;;;;17.83;7.53;;;;;;;-1.53;100.00;97114.52;1566451;90;21058;-69
2022/01/18 03:58:12;;;;;;;21.67;9.20;;;;;;;-1.57;100.00;97115.84;1635683;88;21149;-70
2022/01/18 04:00:39;;;;;;;19.57;8.13;;;;;;;-1.59;100.00;97121.81;1614057;88;21094;-70
2022/01/18 04:03:06;;;;;;;14.77;5.67;;;;;;;-1.60;100.00;97132.07;1635713;88;21031;-69
2022/01/18 04:05:33;;;;;;;9.87;4.37;;;;;;;-1.66;100.00;97137.54;1612749;89;21157;-69
2022/01/18 04:08:01;;;;;;;9.93;4.60;;;;;;;-1.71;100.00;97141.17;1635610;88;21123;-68
2022/01/18 04:10:28;;;;;;;7.70;3.77;;;;;;;-1.73;100.00;97150.61;1613780;88;21039;-69
2022/01/18 04:12:58;;;;;;;8.33;3.87;;;;;;;-1.74;100.00;97156.06;1613638;88;21053;-69
2022/01/18 04:15:26;;;;;;;6.93;3.23;;;;;;;-1.76;100.00;97163.36;1613625;89;21622;-70
2022/01/18 04:26:03;;;;;;;4.63;2.70;;;;;;;-1.92;100.00;97183.52;1628062;87;21110;-70
2022/01/18 04:28:42;;;;;;;7.10;3.07;;;;;;;-2.02;100.00;97189.48;1627865;87;21082;-69
2022/01/18 04:31:09;;;;;;;5.53;3.07;;;;;;;-2.11;100.00;97193.91;1649735;87;21062;-69
2022/01/18 04:33:38;;;;;;;4.67;2.53;;;;;;;-2.15;100.00;97205.80;1650010;87;21074;-70
2022/01/18 04:36:06;;;;;;;5.40;2.87;;;;;;;-2.19;100.00;97209.77;1627810;87;21117;-70
2022/01/18 04:38:34;;;;;;;4.30;2.60;;;;;;;-2.23;100.00;97214.20;1649677;87;21030;-69
2022/01/18 04:41:07;;;;;;;3.03;2.40;;;;;;;-2.26;100.00;97217.19;1649516;87;21523;-69
2022/01/18 04:43:47;;;;;;;3.97;2.10;;;;;;;-2.40;100.00;97236.63;1649754;87;21114;-69
2022/01/18 04:48:52;;;;;;;6.90;2.63;;;;;;;-2.47;100.00;97239.58;1677559;85;21045;-68
2022/01/18 04:51:19;;;;;;;5.00;2.70;;;;;;;-2.57;100.00;97242.82;1700855;84;21040;-69
2022/01/18 04:57:51;;;;;;;6.03;2.67;;;;;;;-2.75;100.00;97261.39;1646494;87;21123;-67
2022/01/18 04:58:58;;;;;;;4.37;2.57;;;;;;;-2.81;100.00;97266.82;1626873;88;21051;-67
2022/01/18 05:01:25;;;;;;;4.67;2.53;;;;;;;-2.86;100.00;97269.09;1605625;88;21558;-65
2022/01/18 05:03:52;;;;;;;7.80;3.20;;;;;;;-2.90;100.00;97282.30;1653819;87;21579;-68
2022/01/18 05:06:21;;;;;;;8.10;2.93;;;;;;;-2.93;100.00;97281.27;1653689;87;21027;-70
2022/01/18 05:08:48;;;;;;;5.13;2.80;;;;;;;-2.95;100.00;97284.56;1644795;86;21039;-69
2022/01/18 05:11:18;;;;;;;10.00;3.20;;;;;;;-2.99;100.00;97293.77;1709880;83;21083;-70
2022/01/18 05:22:56;;;;;;;8.20;3.50;;;;;;;-3.26;100.00;97314.02;1589348;90;21114;-69
2022/01/18 05:24:04;;;;;;;9.90;4.33;;;;;;;-3.34;100.00;97320.07;1566129;90;21080;-69
2022/01/18 05:26:31;;;;;;;13.20;4.60;;;;;;;-3.37;100.00;97322.18;1567943;90;21619;-68
2022/01/18 05:28:58;;;;;;;13.33;4.53;;;;;;;-3.41;100.00;97331.40;1590145;89;21044;-69
2022/01/18 05:31:25;;;;;;;10.17;4.20;;;;;;;-3.45;100.00;97335.66;1591108;90;21067;-69
2022/01/18 05:33:53;;;;;;;12.23;4.30;;;;;;;-3.48;100.00;97331.98;1569580;90;21059;-68
2022/01/18 05:36:22;;;;;;;10.63;4.23;;;;;;;-3.49;100.00;97322.88;1590971;90;21056;-70
2022/01/18 05:38:50;;;;;;;11.07;3.67;;;;;;;-3.48;100.00;97333.30;1590897;90;21052;-71
2022/01/18 05:41:18;;;;;;;11.50;4.30;;;;;;;-3.45;100.00;97336.16;1591185;90;21147;-69
2022/01/18 05:43:47;;;;;;;9.90;3.90;;;;;;;-3.42;100.00;97338.97;1591068;90;21091;-70
2022/01/18 05:46:14;;;;;;;10.23;3.50;;;;;;;-3.42;100.00;97329.22;1569892;90;21040;-69
2022/01/18 05:48:41;;;;;;;8.87;3.60;;;;;;;-3.41;100.00;97330.90;1591017;89;21071;-70
2022/01/18 05:51:08;;;;;;;8.77;3.40;;;;;;;-3.38;100.00;97330.61;1569521;90;21067;-70
2022/01/18 05:53:35;;;;;;;10.83;4.67;;;;;;;-3.34;100.00;97331.14;1628907;88;21102;-69
2022/01/18 05:56:11;;;;;;;15.17;4.37;;;;;;;-3.30;100.00;97347.84;1609211;88;21051;-69
2022/01/18 05:58:43;;;;;;;8.70;3.27;;;;;;;-3.28;100.00;97342.41;1631495;88;21215;-70
2022/01/18 06:01:13;;;;;;;10.20;3.58;;;;;;;-3.23;100.00;97341.48;1632053;88;21084;-69
2022/01/18 06:08:55;;;;;;;9.03;3.60;;;;;;;-3.09;100.00;97359.45;1537411;93;21126;-68
2022/01/18 06:11:22;;;;;;;8.83;3.60;;;;;;;-3.05;100.00;97354.70;1537108;93;21150;-69
2022/01/18 06:13:49;;;;;;;10.87;4.23;;;;;;;-3.02;100.00;97359.69;1559163;92;21086;-70
2022/01/18 06:16:17;;;;;;;8.30;3.70;;;;;;;-2.96;100.00;97362.22;1537311;93;21155;-69
2022/01/18 06:18:45;;;;;;;8.47;3.43;;;;;;;-2.91;100.00;97363.42;1572294;89;21116;-71
2022/01/18 06:21:12;;;;;;;7.47;3.13;;;;;;;-2.84;100.00;97372.08;1579755;89;21104;-70
2022/01/18 06:23:40;;;;;;;7.23;3.17;;;;;;;-2.79;100.00;97366.67;1574956;91;21084;-69
2022/01/18 06:26:14;;;;;;;8.77;3.43;;;;;;;-2.78;100.00;97378.92;1598620;88;21121;-68
2022/01/18 06:28:37;;;;;;;9.30;3.27;;;;;;;-2.76;100.00;97379.59;1601320;88;21518;-68
2022/01/18 06:31:04;;;;;;;6.67;3.40;;;;;;;-2.71;100.00;97378.66;1601907;88;21093;-68
2022/01/18 06:33:31;;;;;;;11.17;4.23;;;;;;;-2.68;100.00;97380.97;1623874;88;21046;-69
2022/01/18 06:35:59;;;;;;;7.07;3.83;;;;;;;-2.60;100.00;97392.60;1619709;88;21029;-69
2022/01/18 06:38:28;;;;;;;8.83;3.97;;;;;;;-2.56;100.00;97385.55;1582189;89;21098;-69
2022/01/18 06:40:55;;;;;;;12.40;5.37;;;;;;;-2.51;100.00;97392.53;1622427;88;21010;-70
2022/01/18 06:43:22;;;;;;;20.10;9.73;;;;;;;-2.47;100.00;97401.49;1656705;84;21182;-72
2022/01/18 06:45:49;;;;;;;15.43;7.83;;;;;;;-2.45;100.00;97405.64;1705639;84;21054;-69
2022/01/18 06:48:16;;;;;;;13.70;6.83;;;;;;;-2.47;100.00;97400.99;1645411;87;21120;-70
2022/01/18 06:50:44;;;;;;;22.43;10.57;;;;;;;-2.52;100.00;97406.73;1625752;87;21076;-70
2022/01/18 06:53:11;;;;;;;37.93;19.87;;;;;;;-2.51;100.00;97417.67;1605515;87;21072;-70
2022/01/18 06:55:38;;;;;;;34.73;17.63;;;;;;;-2.54;100.00;97413.17;1626864;87;21076;-70
2022/01/18 06:58:05;;;;;;;32.97;15.37;;;;;;;-2.53;100.00;97406.91;1646100;87;21216;-70
2022/01/18 07:00:33;;;;;;;34.27;15.97;;;;;;;-2.48;100.00;97405.94;1645676;87;21072;-72
2022/01/18 07:03:00;;;;;;;43.30;21.77;;;;;;;-2.43;100.00;97407.63;1636808;87;21010;-71
2022/01/18 07:05:31;;;;;;;14.17;6.23;;;;;;;-2.35;100.00;97408.20;1631665;87;21015;-70
2022/01/18 07:07:57;;;;;;;38.40;18.03;;;;;;;-2.30;100.00;97413.88;1640598;87;21040;-70
2022/01/18 07:10:26;;;;;;;30.53;15.03;;;;;;;-2.25;100.00;97407.59;1644393;87;21060;-70
2022/01/18 07:12:56;;;;;;;34.27;18.20;;;;;;;-2.22;100.00;97405.97;1645009;87;21142;-71
2022/01/18 07:15:23;;;;;;;30.37;13.63;;;;;;;-2.18;100.00;97407.81;1657339;86;21050;-71
2022/01/18 07:17:50;;;;;;;40.87;19.20;;;;;;;-2.13;100.00;97418.27;1671341;86;21113;-69
2022/01/18 07:20:17;;;;;;;44.13;23.17;;;;;;;-1.99;100.00;97422.17;1689245;84;21095;-71
2022/01/18 07:22:44;;;;;;;31.17;14.40;;;;;;;-1.82;100.00;97409.87;1702630;84;21062;-71
2022/01/18 07:25:12;;;;;;;16.20;7.43;;;;;;;-1.60;100.00;97415.60;1708474;84;21094;-70
2022/01/18 07:27:40;;;;;;;15.37;7.23;;;;;;;-1.36;100.00;97411.73;1707947;84;21067;-71
2022/01/18 07:30:10;;;;;;;11.30;4.87;;;;;;;-1.21;100.00;97411.12;1695246;84;21042;-71
2022/01/18 07:32:38;;;;;;;14.70;5.70;;;;;;;-1.14;100.00;97416.11;1673229;85;21500;-71
2022/01/18 07:35:07;;;;;;;50.80;30.67;;;;;;;-1.17;100.00;97433.19;1686512;85;21070;-71
2022/01/18 07:37:35;;;;;;;23.23;11.57;;;;;;;-1.26;100.00;97430.66;1689370;85;21582;-70
2022/01/18 07:40:03;;;;;;;87.03;38.53;;;;;;;-1.40;100.00;97428.11;1672785;86;21098;-71
2022/01/18 07:42:31;;;;;;;25.87;12.43;;;;;;;-1.51;100.00;97451.75;1689224;85;21089;-70
2022/01/18 07:44:58;;;;;;;14.07;5.60;;;;;;;-1.68;100.00;97470.72;1672627;86;21083;-71
2022/01/18 07:47:25;;;;;;;11.10;5.17;;;;;;;-1.89;100.00;97476.85;1647738;85;21101;-70
2022/01/18 07:49:52;;;;;;;60.23;34.47;;;;;;;-2.08;100.00;97485.34;1658662;86;21160;-70
2022/01/18 07:52:19;;;;;;;38.47;20.83;;;;;;;-2.22;100.00;97497.80;1663842;86;21499;-70
2022/01/18 07:54:46;;;;;;;25.87;13.73;;;;;;;-2.26;100.00;97501.75;1645176;86;21025;-71
2022/01/18 07:57:15;;;;;;;23.63;11.43;;;;;;;-2.31;100.00;97501.69;1658391;85;21063;-70
2022/01/18 07:59:42;;;;;;;26.47;12.93;;;;;;;-2.33;100.00;97532.78;1664659;86;21242;-69
2022/01/18 08:02:09;;;;;;;15.50;7.77;;;;;;;-2.39;100.00;97529.42;1667408;86;21007;-72
2022/01/18 08:04:36;;;;;;;10.00;4.13;;;;;;;-2.44;100.00;97535.66;1674437;86;21114;-70
2022/01/18 08:07:04;;;;;;;21.17;10.90;;;;;;;-2.57;100.00;97549.73;1680933;85;21508;-71
2022/01/18 08:09:32;;;;;;;21.73;10.60;;;;;;;-2.68;100.00;97558.72;1654232;86;21094;-69
2022/01/18 08:11:59;;;;;;;27.50;14.10;;;;;;;-2.68;100.00;97552.92;1654105;87;21037;-71
2022/01/18 08:14:29;;;;;;;27.10;17.33;;;;;;;-2.65;100.00;97551.81;1634728;87;21109;-70
2022/01/18 08:17:01;;;;;;;46.87;28.87;;;;;;;-2.66;100.00;97567.33;1655860;86;21406;-69
2022/01/18 08:19:35;;;;;;;39.17;23.63;;;;;;;-2.68;100.00;97575.41;1680397;83;21518;-70
2022/01/18 08:22:03;;;;;;;38.65;27.20;;;;;;;-2.69;100.00;97579.05;1713710;84;21574;-70
2022/01/18 08:24:30;;;;;;;14.50;8.67;;;;;;;-2.69;100.00;97588.31;1703911;84;21061;-70
2022/01/18 08:26:57;;;;;;;34.03;22.23;;;;;;;-2.72;100.00;97594.39;1702908;84;21031;-70
2022/01/18 08:29:24;;;;;;;35.70;17.47;;;;;;;-2.83;100.00;97590.13;1693503;84;21048;-72
2022/01/18 08:31:52;;;;;;;12.30;6.37;;;;;;;-2.94;100.00;97597.77;1668804;85;21061;-71
2022/01/18 08:34:21;;;;;;;35.57;19.87;;;;;;;-3.00;100.00;97605.44;1670724;84;21060;-71
2022/01/18 08:36:50;;;;;;;13.53;8.23;;;;;;;-3.11;100.00;97610.42;1692105;83;21094;-69
2022/01/18 08:39:18;;;;;;;11.30;3.73;;;;;;;-3.15;100.00;97624.88;1677817;85;21068;-69
2022/01/18 08:41:45;;;;;;;8.70;4.53;;;;;;;-3.26;100.00;97628.06;1680389;85;21108;-70
2022/01/18 08:44:12;;;;;;;12.50;5.37;;;;;;;-3.39;100.00;97634.12;1752776;81;21006;-70
2022/01/18 08:46:39;;;;;;;12.47;5.20;;;;;;;-3.52;100.00;97648.97;1768768;80;21132;-71
2022/01/18 08:49:07;;;;;;;25.93;11.87;;;;;;;-3.62;100.00;97642.35;1689008;84;21086;-71
2022/01/18 08:51:35;;;;;;;21.50;11.70;;;;;;;-3.71;100.00;97648.48;1691468;84;21099;-71
2022/01/18 08:54:03;;;;;;;23.60;11.23;;;;;;;-3.71;100.00;97651.63;1687671;84;21090;-70
2022/01/18 08:56:31;;;;;;;18.20;8.73;;;;;;;-3.71;100.00;97661.69;1700730;83;21122;-73
2022/01/18 08:58:58;;;;;;;12.90;5.67;;;;;;;-3.70;100.00;97671.76;1643945;85;21054;-71
2022/01/18 09:01:25;;;;;;;14.17;7.87;;;;;;;-3.71;100.00;97671.43;1650853;86;21069;-71
2022/01/18 09:03:52;;;;;;;25.57;17.17;;;;;;;-3.70;100.00;97671.30;1717003;82;21090;-73
2022/01/18 09:06:22;;;;;;;35.57;24.60;;;;;;;-3.68;100.00;97683.05;1740299;81;22000;-71
2022/01/18 09:08:55;;;;;;;23.23;15.43;;;;;;;-3.69;100.00;97676.91;1719528;82;21067;-70
2022/01/18 09:11:17;;;;;;;14.20;7.07;;;;;;;-3.69;100.00;97672.12;1728899;81;21492;-72
2022/01/18 09:13:44;;;;;;;8.63;4.70;;;;;;;-3.71;100.00;97678.86;1738720;82;21499;-70
2022/01/18 09:16:11;;;;;;;13.77;6.50;;;;;;;-3.79;100.00;97690.59;1704065;83;20991;-69
2022/01/18 09:18:39;;;;;;;9.50;4.33;;;;;;;-3.87;100.00;97688.65;1738171;80;21061;-72
2022/01/18 09:21:06;;;;;;;9.70;5.20;;;;;;;-3.89;100.00;97680.03;1725646;82;21008;-71
2022/01/18 09:23:52;;;;;;;7.73;4.20;;;;;;;-3.91;100.00;97700.47;1740815;81;21102;-71
2022/01/18 09:26:19;;;;;;;11.07;5.03;;;;;;;-3.92;100.00;97712.48;1674500;83;21022;-71
2022/01/18 09:28:47;;;;;;;22.80;8.93;;;;;;;-3.97;100.00;97707.59;1683004;83;21090;-73
2022/01/18 09:31:14;;;;;;;12.43;6.20;;;;;;;-3.97;100.00;97712.88;1706227;83;21063;-72
2022/01/18 09:33:41;;;;;;;12.50;7.17;;;;;;;-3.93;100.00;97705.05;1706184;84;21028;-72
2022/01/18 09:36:10;;;;;;;9.37;4.27;;;;;;;-3.91;100.00;97719.41;1705644;84;21056;-71
2022/01/18 09:38:38;;;;;;;18.13;9.77;;;;;;;-3.88;100.00;97720.00;1706258;84;21573;-71
2022/01/18 09:41:10;;;;;;;18.30;9.97;;;;;;;-3.85;100.00;97720.20;1707022;83;21087;-70
2022/01/18 09:43:35;;;;;;;23.67;13.50;;;;;;;-3.80;100.00;97715.84;1706506;84;21060;-72
2022/01/18 09:46:02;;;;;;;11.90;7.07;;;;;;;-3.75;100.00;97721.05;1708495;82;21045;-71
2022/01/18 09:48:29;;;;;;;8.77;4.37;;;;;;;-3.71;100.00;97734.32;1681607;83;21116;-71
2022/01/18 09:50:59;;;;;;;14.37;7.23;;;;;;;-3.72;100.00;97727.85;1681113;84;21964;-71
2022/01/18 09:53:26;;;;;;;6.67;4.63;;;;;;;-3.72;100.00;97722.57;1697848;83;21046;-72
2022/01/18 09:55:55;;;;;;;18.57;9.87;;;;;;;-3.69;100.00;97720.98;1690449;84;21035;-76
2022/01/18 09:58:22;;;;;;;8.73;4.37;;;;;;;-3.66;100.00;97734.75;1652623;86;21611;-71
2022/01/18 10:00:50;;;;;;;11.27;4.83;;;;;;;-3.68;100.00;97734.55;1671080;85;21032;-71
2022/01/18 10:03:30;;;;;;;8.57;4.50;;;;;;;-3.67;100.00;97748.09;1669589;85;21058;-71
2022/01/18 10:05:57;;;;;;;6.13;3.80;;;;;;;-3.63;100.00;97730.52;1659609;85;21011;-72
2022/01/18 10:08:24;;;;;;;33.60;15.80;;;;;;;-3.56;100.00;97733.45;1654074;86;21111;-71
2022/01/18 10:10:57;;;;;;;21.63;11.20;;;;;;;-3.50;100.00;97747.41;1669546;84;21603;-70
2022/01/18 10:13:32;;;;;;;18.57;9.60;;;;;;;-3.38;100.00;97753.86;1688429;85;21024;-71
2022/01/18 10:16:14;;;;;;;13.23;8.27;;;;;;;-3.27;100.00;97747.96;1646373;85;21047;-70
2022/01/18 10:19:01;;;;;;;12.27;7.10;;;;;;;-3.20;100.00;97760.14;1658629;85;21026;-69
2022/01/18 10:21:36;;;;;;;19.03;9.77;;;;;;;-3.25;100.00;97757.91;1658914;84;21548;-70
2022/01/18 10:24:23;;;;;;;9.27;4.97;;;;;;;-3.18;100.00;97761.33;1650720;87;21054;-70
2022/01/18 10:26:52;;;;;;;13.73;7.23;;;;;;;-3.11;100.00;97767.72;1653406;87;21043;-69
2022/01/18 10:29:22;;;;;;;7.13;5.60;;;;;;;-3.16;100.00;97764.66;1674865;84;21027;-71
2022/01/18 10:37:14;;;;;;;6.37;3.73;;;;;;;-3.25;100.00;97783.02;1694692;83;21046;-69
2022/01/18 10:39:51;;;;;;;13.37;7.10;;;;;;;-3.32;100.00;97777.11;1690636;84;22396;-71
2022/01/18 10:42:36;;;;;;;9.00;6.60;;;;;;;-3.29;100.00;97785.59;1678670;85;21062;-70
2022/01/18 10:45:09;;;;;;;6.67;3.90;;;;;;;-3.26;100.00;97802.97;1601260;89;21769;-71
2022/01/18 10:47:37;;;;;;;11.60;6.53;;;;;;;-3.34;100.00;97784.34;1588312;90;21118;-70
2022/01/18 10:50:15;;;;;;;11.93;5.87;;;;;;;-3.45;100.00;97795.89;1589940;90;21071;-70
2022/01/18 10:52:42;;;;;;;7.67;4.17;;;;;;;-3.47;100.00;97798.66;1590898;90;21123;-70
2022/01/18 10:55:22;;;;;;;7.57;4.77;;;;;;;-3.52;100.00;97798.23;1590519;90;21630;-69
2022/01/18 10:57:49;;;;;;;6.63;3.90;;;;;;;-3.50;100.00;97817.42;1592173;90;21126;-71
2022/01/18 11:00:25;;;;;;;8.87;5.10;;;;;;;-3.44;100.00;97820.00;1599341;90;21070;-70
2022/01/18 11:02:54;;;;;;;16.90;8.40;;;;;;;-3.41;100.00;97817.59;1598979;90;21144;-72
2022/01/18 11:05:27;;;;;;;11.33;5.00;;;;;;;-3.32;100.00;97826.00;1599138;90;21121;-70
2022/01/18 11:07:56;;;;;;;13.70;7.67;;;;;;;-3.23;100.00;97823.84;1618678;88;21535;-70
2022/01/18 11:10:27;;;;;;;14.67;8.27;;;;;;;-3.22;100.00;97823.35;1630213;88;21604;-70
2022/01/18 11:13:06;;;;;;;8.20;4.30;;;;;;;-3.18;100.00;97835.34;1604397;88;21073;-70
2022/01/18 11:15:37;;;;;;;13.00;6.03;;;;;;;-3.19;100.00;97834.48;1542009;92;21126;-71
2022/01/18 11:18:09;;;;;;;6.50;4.03;;;;;;;-3.22;100.00;97836.11;1549201;91;21008;-70
2022/01/18 11:20:42;;;;;;;7.13;3.67;;;;;;;-3.21;100.00;97844.37;1560025;91;21608;-69
2022/01/18 11:23:10;;;;;;;18.30;12.43;;;;;;;-3.22;100.00;97850.64;1557155;92;21587;-71
2022/01/18 11:25:38;;;;;;;10.57;6.47;;;;;;;-3.28;100.00;97868.36;1540749;92;21137;-70
2022/01/18 11:28:07;;;;;;;9.77;5.83;;;;;;;-3.36;100.00;97863.77;1560022;90;21012;-71
2022/01/18 11:30:44;;;;;;;9.73;4.63;;;;;;;-3.39;100.00;97882.53;1560582;92;21065;-71
2022/01/18 11:33:15;;;;;;;14.13;6.27;;;;;;;-3.44;100.00;97891.34;1561448;92;21059;-72
2022/01/18 11:36:00;;;;;;;12.33;6.50;;;;;;;-3.47;100.00;97907.00;1559047;92;21064;-70
2022/01/18 11:38:49;;;;;;;14.57;6.90;;;;;;;-3.46;100.00;97918.39;1564831;90;21067;-69
2022/01/18 11:41:28;;;;;;;18.77;13.63;;;;;;;-3.46;100.00;97932.44;1569089;91;21141;-71
2022/01/18 11:43:57;;;;;;;12.10;6.63;;;;;;;-3.45;100.00;97943.37;1577221;91;21678;-71
2022/01/18 11:46:35;;;;;;;14.93;7.30;;;;;;;-3.45;100.00;97946.01;1581815;89;21504;-70
2022/01/18 11:49:10;;;;;;;28.83;17.20;;;;;;;-3.50;100.00;97950.85;1591040;89;21479;-71
2022/01/18 11:52:06;;;;;;;26.63;15.77;;;;;;;-3.56;100.00;97968.58;1583070;90;21604;-69
2022/01/18 11:54:56;;;;;;;9.53;4.70;;;;;;;-3.61;100.00;97972.09;1583712;91;21616;-72
2022/01/18 11:57:27;;;;;;;10.50;5.73;;;;;;;-3.68;100.00;97978.38;1580724;89;21081;-71
2022/01/18 12:00:14;;;;;;;24.20;14.63;;;;;;;-3.73;100.00;97985.03;1554498;92;21106;-72
2022/01/18 12:02:43;;;;;;;33.80;19.37;;;;;;;-3.76;100.00;97993.21;1552839;91;21106;-70
2022/01/18 12:05:21;;;;;;;21.73;11.40;;;;;;;-3.77;100.00;97998.98;1584156;91;21577;-71
2022/01/18 12:07:58;;;;;;;19.57;10.73;;;;;;;-3.78;100.00;98006.55;1583259;91;21088;-71
2022/01/18 12:10:43;;;;;;;7.87;4.23;;;;;;;-3.76;100.00;98017.81;1583934;91;21080;-72
2022/01/18 12:13:13;;;;;;;9.83;5.57;;;;;;;-3.75;100.00;98017.31;1615131;88;21107;-72
2022/01/18 12:15:49;;;;;;;9.13;4.80;;;;;;;-3.77;100.00;98028.04;1636956;86;21086;-70
2022/01/18 12:18:21;;;;;;;16.37;5.63;;;;;;;-3.81;100.00;98042.45;1611767;88;21062;-70
2022/01/18 12:21:00;;;;;;;18.13;5.70;;;;;;;-3.84;100.00;98029.03;1566485;90;21125;-71
2022/01/18 12:23:42;;;;;;;9.50;4.60;;;;;;;-3.86;100.00;98044.63;1543729;92;21106;-71
2022/01/18 12:34:31;;;;;;;14.50;6.83;;;;;;;-3.85;100.00;98056.88;1553587;92;21521;-70
2022/01/18 12:37:24;;;;;;;11.60;5.80;;;;;;;-3.89;100.00;98056.80;1555009;92;21107;-70
2022/01/18 12:40:05;;;;;;;13.08;5.05;;;;;;;-3.92;100.00;98068.44;1520492;94;21651;-70
2022/01/18 12:45:23;;;;;;;17.73;7.20;;;;;;;-3.91;100.00;98075.41;1525903;94;21556;-71
2022/01/18 12:48:00;;;;;;;28.57;11.30;;;;;;;-3.89;100.00;98084.03;1523458;92;21074;-70
2022/01/18 12:50:35;;;;;;;25.63;10.43;;;;;;;-3.86;100.00;98093.03;1555668;92;21063;-71
2022/01/18 12:53:23;;;;;;;22.20;10.93;;;;;;;-3.91;100.00;98090.39;1529481;93;21243;-69